»·PEaware :: N512PC KLAX-KSNA

N512PC :: KLAX-KSNA

FLIGHT INFORMATION

Flight Status: Arrived
Operator: Privately registered:
United States
More flights under this callsign
Pilot: Jacob V. (20481)
Aircraft: BEECH AIRCRAFT BARON
(BE58)
More flights by this aircraft type
Origin: KLAX Los Angeles Intl
United States
Destination: KSNA John Wayne-Orange Co
United States
More flights between these airports :: More routes between these airports
Route: +SLI8 SLI
File this flight plan on PilotEdge
Remarks: I-6 Rating
Altitude:
(Current/Filed)
4,000ft
Speed:
(Current/Filed)
160kts
Departed: 05-Oct-18 01:08 PM
Arrived: 05-Oct-18 01:41 PM
Distance/Time
Traveled:
31nm/0:32
Distance/Time
To Go:
Arrived

Flight Plot

Page will automatically refresh every two minutes.

Flight plan parsing failed; only flown route is shown


Map Options




Map Legend


Flown Route
Filed Route
Departure Airport
Arrival Airport
Navaid (VOR, NDB)
Fix

Horizontal Profiles

Position Reports

Time Latitude Longitude Heading Altitude Ground
Speed
05-Oct-18 12:27 33.932495 -118.394819 89 104ft 0kts
05-Oct-18 12:28 33.932495 -118.394819 89 104ft 0kts
05-Oct-18 12:29 33.932495 -118.394819 89 104ft 0kts
05-Oct-18 12:31 33.932495 -118.394819 89 104ft 0kts
05-Oct-18 12:32 33.932495 -118.394819 89 104ft 0kts
05-Oct-18 12:33 33.932495 -118.394819 89 104ft 0kts
05-Oct-18 12:34 33.932495 -118.394819 89 104ft 0kts
05-Oct-18 12:35 33.932495 -118.394819 89 104ft 0kts
05-Oct-18 12:36 33.932495 -118.394819 89 104ft 0kts
05-Oct-18 12:37 33.932495 -118.394819 89 104ft 0kts
05-Oct-18 12:40 33.932495 -118.394819 89 104ft 0kts
05-Oct-18 12:41 33.932495 -118.394819 89 104ft 0kts
05-Oct-18 12:43 33.932495 -118.394819 89 104ft 0kts
05-Oct-18 12:44 33.932495 -118.394819 89 104ft 0kts
05-Oct-18 12:45 33.932495 -118.394810 89 105ft 0kts
05-Oct-18 12:48 33.932495 -118.394826 89 104ft 0kts
05-Oct-18 12:49 33.932495 -118.394826 89 104ft 0kts
05-Oct-18 12:50 33.932495 -118.394826 89 104ft 0kts
05-Oct-18 12:51 33.932495 -118.394826 89 104ft 0kts
05-Oct-18 12:52 33.932495 -118.394826 89 104ft 0kts
05-Oct-18 12:53 33.932495 -118.394826 89 104ft 0kts
05-Oct-18 12:54 33.932495 -118.394826 89 104ft 0kts
05-Oct-18 12:55 33.932495 -118.394826 89 104ft 0kts
05-Oct-18 12:56 33.932495 -118.394826 89 104ft 0kts
05-Oct-18 12:57 33.932495 -118.394826 89 104ft 0kts
05-Oct-18 12:58 33.932495 -118.394826 89 104ft 0kts
05-Oct-18 12:59 33.932495 -118.394826 89 104ft 0kts
05-Oct-18 13:00 33.932495 -118.394826 89 104ft 0kts
05-Oct-18 13:01 33.932495 -118.394826 89 104ft 0kts
05-Oct-18 13:02 33.932495 -118.394826 89 104ft 0kts
05-Oct-18 13:03 33.932522 -118.394666 81 104ft 6kts
05-Oct-18 13:04 33.933701 -118.393961 357 104ft 4kts
05-Oct-18 13:05 33.935252 -118.391277 81 101ft 19kts
05-Oct-18 13:06 33.935944 -118.384573 83 98ft 12kts
05-Oct-18 13:07 33.936445 -118.382769 3 95ft 0kts
05-Oct-18 13:08 33.936445 -118.382769 3 95ft 0kts
05-Oct-18 13:09 33.936445 -118.382769 3 95ft 0kts
05-Oct-18 13:10 33.937050 -118.385931 262 98ft 72kts
05-Oct-18 13:11 33.933698 -118.421935 262 1916ft 105kts
05-Oct-18 13:12 33.919034 -118.444077 180 3878ft 116kts
05-Oct-18 13:13 33.874330 -118.444852 187 3884ft 192kts
05-Oct-18 13:14 33.823878 -118.432521 142 4042ft 195kts
05-Oct-18 13:15 33.780552 -118.389104 148 3975ft 203kts
05-Oct-18 13:16 33.737919 -118.344443 140 3964ft 203kts
05-Oct-18 13:17 33.697118 -118.300491 140 4006ft 191kts
05-Oct-18 13:18 33.658010 -118.258163 140 4012ft 189kts
05-Oct-18 13:19 33.619140 -118.216040 140 4012ft 188kts
05-Oct-18 13:20 33.580453 -118.174031 137 4013ft 187kts
05-Oct-18 13:21 33.598705 -118.131297 11 4016ft 184kts
05-Oct-18 13:22 33.647749 -118.113694 15 4013ft 184kts
05-Oct-18 13:23 33.696199 -118.093285 17 4013ft 185kts
05-Oct-18 13:24 33.744452 -118.071963 17 4013ft 185kts
05-Oct-18 13:25 33.792633 -118.050339 18 4010ft 184kts
05-Oct-18 13:26 33.817047 -118.001724 90 4009ft 188kts
05-Oct-18 13:27 33.830680 -117.943059 62 4006ft 186kts
05-Oct-18 13:28 33.853161 -117.887151 62 4003ft 187kts
05-Oct-18 13:29 33.876138 -117.831117 61 4000ft 187kts
05-Oct-18 13:30 33.899205 -117.775207 61 3998ft 186kts
05-Oct-18 13:31 33.922253 -117.719258 61 3999ft 186kts
05-Oct-18 13:32 33.963129 -117.684504 27 4003ft 183kts
05-Oct-18 13:33 34.003484 -117.686733 277 4008ft 177kts
05-Oct-18 13:34 33.964489 -117.698626 155 4006ft 190kts
05-Oct-18 13:35 33.919880 -117.707771 219 4280ft 171kts
05-Oct-18 13:36 33.877845 -117.739890 211 3837ft 207kts
05-Oct-18 13:37 33.829309 -117.771174 209 3613ft 186kts
05-Oct-18 13:38 33.783030 -117.800360 210 3020ft 201kts
05-Oct-18 13:39 33.746193 -117.824303 209 1962ft 111kts
05-Oct-18 13:40 33.721175 -117.840027 209 1018ft 101kts
05-Oct-18 13:41 33.694917 -117.856857 204 358ft 108kts
05-Oct-18 13:42 33.672826 -117.870643 209 49ft 64kts
05-Oct-18 13:43 33.669253 -117.871760 132 52ft 0kts
05-Oct-18 13:44 33.669253 -117.871760 132 52ft 0kts
05-Oct-18 13:45 33.668770 -117.870108 39 49ft 0kts
05-Oct-18 13:46 33.668770 -117.870108 39 49ft 0kts
05-Oct-18 13:47 33.668770 -117.870108 39 49ft 0kts

Navigation Log

Ident Type
Flight plan parsing failed, navigation log unavailable